| time (UTC) | temp F | wind direction | speed MPH | gust MPH | rain 1hr in | rain 24hr in | rain mn in | humidity % | barometer mb |
| 20260506141029 | 50 | 293 | 3.0 | 10.0 | 0.00 | 0.60 | 0.48 | 97 | 1012.5 |
| 20260506140529 | 50 | 339 | 2.0 | 9.0 | 0.00 | 0.60 | 0.48 | 97 | 1012.3 |
| 20260506140057 | 50 | 309 | 3.0 | 9.0 | 0.00 | 0.60 | 0.48 | 97 | 1012.3 |
| 20260506135528 | 50 | 5 | 2.0 | 8.0 | 0.00 | 0.60 | 0.48 | 97 | 1012.1 |
| 20260506135028 | 50 | 288 | 2.0 | 8.0 | 0.01 | 0.60 | 0.48 | 97 | 1012.2 |
| 20260506134547 | 50 | 300 | 2.0 | 8.0 | 0.01 | 0.60 | 0.48 | 96 | 1012.2 |
| 20260506134032 | 50 | 350 | 2.0 | 8.0 | 0.01 | 0.60 | 0.48 | 96 | 1012.0 |
| 20260506133528 | 50 | 5 | 2.0 | 7.0 | 0.01 | 0.60 | 0.48 | 96 | 1011.8 |
| 20260506133101 | 50 | 0 | 2.0 | 5.0 | 0.01 | 0.60 | 0.48 | 96 | 1011.7 |
| 20260506132528 | 50 | 323 | 1.0 | 5.0 | 0.01 | 0.60 | 0.48 | 96 | 1011.8 |
| 20260506132026 | 50 | 352 | 1.0 | 5.0 | 0.01 | 0.60 | 0.48 | 96 | 1011.8 |
| 20260506131548 | 50 | 0 | 1.0 | 5.0 | 0.01 | 0.60 | 0.48 | 96 | 1011.9 |
| 20260506131030 | 50 | 355 | 1.0 | 4.0 | 0.01 | 0.60 | 0.48 | 96 | 1011.7 |
| 20260506130528 | 50 | 0 | 2.0 | 5.0 | 0.01 | 0.60 | 0.48 | 96 | 1011.5 |
| 20260506130121 | 50 | 344 | 1.0 | 5.0 | 0.01 | 0.60 | 0.48 | 96 | 1011.8 |
| 20260506125526 | 50 | 340 | 1.0 | 5.0 | 0.01 | 0.60 | 0.48 | 96 | 1012.0 |
| 20260506125028 | 50 | 319 | 0.0 | 2.0 | 0.00 | 0.58 | 0.47 | 96 | 1012.0 |
| 20260506124548 | 50 | 331 | 0.0 | 2.0 | 0.00 | 0.58 | 0.47 | 96 | 1012.3 |
| 20260506124031 | 50 | 0 | 0.0 | 2.0 | 0.00 | 0.58 | 0.47 | 96 | 1012.1 |
| 20260506123530 | 50 | 355 | 0.0 | 4.0 | 0.00 | 0.58 | 0.47 | 96 | 1012.1 |
| 20260506123045 | 50 | 9 | 1.0 | 8.0 | 0.00 | 0.58 | 0.47 | 96 | 1011.8 |
| 20260506122530 | 50 | 0 | 2.0 | 8.0 | 0.01 | 0.58 | 0.47 | 96 | 1011.8 |
| 20260506122028 | 50 | 343 | 2.0 | 6.0 | 0.01 | 0.58 | 0.47 | 96 | 1011.8 |
| 20260506121554 | 50 | 0 | 1.0 | 8.0 | 0.01 | 0.58 | 0.47 | 96 | 1011.8 |
| 20260506121029 | 50 | 329 | 1.0 | 8.0 | 0.01 | 0.58 | 0.47 | 96 | 1011.8 |
| 20260506120529 | 50 | 305 | 1.0 | 4.0 | 0.01 | 0.58 | 0.47 | 96 | 1011.6 |
| 20260506120049 | 50 | 0 | 0.0 | 4.0 | 0.03 | 0.58 | 0.47 | 96 | 1011.4 |
| 20260506115530 | 50 | 315 | 1.0 | 4.0 | 0.05 | 0.58 | 0.47 | 96 | 1011.5 |
| 20260506115026 | 50 | 319 | 0.0 | 5.0 | 0.09 | 0.58 | 0.47 | 96 | 1011.3 |
| 20260506114548 | 50 | 0 | 1.0 | 5.0 | 0.13 | 0.58 | 0.47 | 96 | 1011.2 |
| 20260506114029 | 50 | 280 | 1.0 | 5.0 | 0.16 | 0.58 | 0.47 | 96 | 1011.2 |
| 20260506113530 | 50 | 0 | 1.0 | 5.0 | 0.17 | 0.58 | 0.47 | 96 | 1011.4 |
| 20260506113054 | 50 | 300 | 1.0 | 4.0 | 0.17 | 0.58 | 0.47 | 96 | 1011.3 |
| 20260506112530 | 50 | 0 | 0.0 | 6.0 | 0.16 | 0.58 | 0.46 | 96 | 1010.8 |
| 20260506112030 | 50 | 340 | 2.0 | 6.0 | 0.16 | 0.58 | 0.46 | 96 | 1010.9 |
| 20260506111544 | 50 | 307 | 1.0 | 4.0 | 0.16 | 0.58 | 0.46 | 96 | 1011.0 |
| 20260506111028 | 50 | 319 | 1.0 | 6.0 | 0.16 | 0.58 | 0.46 | 96 | 1010.8 |
| 20260506110530 | 51 | 344 | 0.0 | 6.0 | 0.16 | 0.58 | 0.46 | 96 | 1010.4 |
| 20260506110051 | 51 | 0 | 2.0 | 6.0 | 0.14 | 0.56 | 0.44 | 96 | 1010.4 |
| 20260506105529 | 51 | 285 | 1.0 | 6.0 | 0.11 | 0.52 | 0.41 | 96 | 1010.7 |
| 20260506105030 | 51 | 329 | 2.0 | 6.0 | 0.07 | 0.49 | 0.37 | 96 | 1010.4 |
| 20260506104555 | 51 | 294 | 1.0 | 4.0 | 0.03 | 0.45 | 0.33 | 96 | 1010.7 |
| 20260506104028 | 51 | 0 | 1.0 | 4.0 | 0.01 | 0.43 | 0.31 | 96 | 1010.3 |
| 20260506103529 | 51 | 0 | 0.0 | 4.0 | 0.00 | 0.42 | 0.30 | 96 | 1010.1 |
| 20260506103047 | 51 | 0 | 0.0 | 4.0 | 0.00 | 0.42 | 0.30 | 96 | 1010.2 |
| 20260506102531 | 51 | 0 | 0.0 | 3.0 | 0.01 | 0.42 | 0.30 | 96 | 1010.2 |
| 20260506102029 | 51 | 5 | 0.0 | 3.0 | 0.01 | 0.42 | 0.30 | 96 | 1010.1 |
| 20260506101546 | 51 | 0 | 0.0 | 4.0 | 0.01 | 0.42 | 0.30 | 95 | 1009.9 |
| 20260506101028 | 51 | 0 | 0.0 | 6.0 | 0.01 | 0.42 | 0.30 | 95 | 1009.8 |
| 20260506100528 | 51 | 342 | 1.0 | 6.0 | 0.02 | 0.42 | 0.30 | 95 | 1009.8 |
| 20260506095530 | 51 | 71 | 1.0 | 4.0 | 0.02 | 0.42 | 0.30 | 96 | 1009.6 |
| 20260506095028 | 51 | 327 | 1.0 | 4.0 | 0.03 | 0.42 | 0.30 | 95 | 1009.5 |
| 20260506094545 | 51 | 18 | 0.0 | 5.0 | 0.03 | 0.42 | 0.30 | 95 | 1009.7 |
| 20260506094031 | 51 | 5 | 1.0 | 8.0 | 0.03 | 0.42 | 0.30 | 95 | 1009.6 |
| 20260506093528 | 51 | 355 | 2.0 | 8.0 | 0.04 | 0.42 | 0.30 | 95 | 1009.8 |
| 20260506093044 | 51 | 300 | 2.0 | 5.0 | 0.05 | 0.42 | 0.30 | 95 | 1009.6 |
| 20260506092529 | 51 | 0 | 2.0 | 5.0 | 0.07 | 0.41 | 0.29 | 95 | 1009.8 |
| 20260506092030 | 52 | 284 | 1.0 | 5.0 | 0.07 | 0.41 | 0.29 | 95 | 1009.8 |
| 20260506091540 | 52 | 352 | 1.0 | 4.0 | 0.07 | 0.41 | 0.29 | 95 | 1009.8 |
| 20260506091034 | 52 | 348 | 0.0 | 5.0 | 0.07 | 0.41 | 0.29 | 95 | 1009.9 |
| 20260506090531 | 52 | 0 | 0.0 | 6.0 | 0.06 | 0.40 | 0.28 | 95 | 1009.9 |
| 20260506090048 | 52 | 355 | 0.0 | 6.0 | 0.07 | 0.40 | 0.28 | 95 | 1009.9 |
| 20260506085528 | 52 | 307 | 1.0 | 5.0 | 0.09 | 0.40 | 0.28 | 95 | 1009.7 |
| 20260506085031 | 52 | 325 | 1.0 | 4.0 | 0.09 | 0.39 | 0.27 | 95 | 1009.6 |
| 20260506084552 | 52 | 275 | 1.0 | 12.0 | 0.09 | 0.39 | 0.27 | 94 | 1009.8 |
| 20260506084029 | 53 | 0 | 1.0 | 12.0 | 0.08 | 0.38 | 0.26 | 94 | 1009.8 |
| 20260506083531 | 53 | 320 | 3.0 | 12.0 | 0.08 | 0.38 | 0.26 | 94 | 1009.7 |
| 20260506083050 | 53 | 242 | 1.0 | 9.0 | 0.07 | 0.37 | 0.25 | 94 | 1010.3 |
| 20260506082530 | 53 | 245 | 2.0 | 4.0 | 0.06 | 0.34 | 0.22 | 94 | 1009.9 |
| 20260506082030 | 53 | 298 | 1.0 | 8.0 | 0.07 | 0.34 | 0.22 | 94 | 1009.3 |
| 20260506081600 | 54 | 298 | 2.0 | 8.0 | 0.07 | 0.34 | 0.22 | 94 | 1009.1 |
| 20260506081030 | 54 | 298 | 1.0 | 6.0 | 0.07 | 0.34 | 0.22 | 93 | 1008.9 |
| 20260506080530 | 54 | 287 | 1.0 | 8.0 | 0.07 | 0.33 | 0.21 | 93 | 1008.6 |
| 20260506073050 | 59 | 304 | 2.0 | 6.0 | 0.07 | 0.30 | 0.18 | 92 | 1007.6 |
| 20260506072529 | 60 | 277 | 1.0 | 8.0 | 0.08 | 0.27 | 0.15 | 91 | 1007.5 |
| 20260506072029 | 61 | 338 | 2.0 | 12.0 | 0.11 | 0.27 | 0.15 | 91 | 1007.6 |
| 20260506071548 | 62 | 22 | 3.0 | 12.0 | 0.12 | 0.27 | 0.15 | 90 | 1007.6 |
| 20260506071030 | 63 | 355 | 1.0 | 5.0 | 0.12 | 0.27 | 0.15 | 93 | 1007.0 |
| 20260506070733 | 64 | 285 | 2.0 | 5.0 | 0.11 | 0.26 | 0.14 | 94 | 1007.2 |
| 20260506062028 | 66 | 315 | 1.0 | 11.0 | 0.04 | 0.16 | 0.04 | 88 | 1007.2 |
| 20260506061549 | 66 | 277 | 2.0 | 11.0 | 0.03 | 0.15 | 0.03 | 87 | 1006.9 |
| 20260506061029 | 66 | 232 | 5.0 | 11.0 | 0.03 | 0.15 | 0.03 | 87 | 1006.2 |
| 20260506060529 | 66 | 236 | 4.0 | 13.0 | 0.03 | 0.15 | 0.03 | 87 | 1006.1 |
| 20260506051028 | 67 | 228 | 7.0 | 13.0 | 0.00 | 0.12 | 0.00 | 84 | 1007.0 |
| 20260506050528 | 66 | 185 | 4.0 | 15.0 | 0.00 | 0.12 | 0.00 | 84 | 1007.1 |
| 20260506045028 | 66 | 159 | 6.0 | 13.0 | 0.00 | 0.12 | 0.12 | 85 | 1007.1 |
| 20260506044547 | 66 | 171 | 5.0 | 16.0 | 0.00 | 0.12 | 0.12 | 85 | 1007.3 |
| 20260506044025 | 66 | 197 | 5.0 | 16.0 | 0.00 | 0.12 | 0.12 | 85 | 1007.2 |
| 20260506043527 | 65 | 194 | 3.0 | 13.0 | 0.00 | 0.12 | 0.12 | 86 | 1007.1 |
| 20260506043048 | 65 | 200 | 5.0 | 13.0 | 0.00 | 0.12 | 0.12 | 86 | 1007.2 |
| 20260506042526 | 65 | 146 | 5.0 | 13.0 | 0.00 | 0.12 | 0.12 | 86 | 1007.2 |
| 20260506042029 | 65 | 186 | 5.0 | 12.0 | 0.00 | 0.12 | 0.12 | 86 | 1007.2 |
| 20260506041547 | 65 | 157 | 6.0 | 14.0 | 0.00 | 0.12 | 0.12 | 87 | 1007.4 |
| 20260506041028 | 65 | 157 | 5.0 | 14.0 | 0.00 | 0.12 | 0.12 | 88 | 1007.3 |
| 20260506040528 | 64 | 164 | 5.0 | 12.0 | 0.00 | 0.12 | 0.12 | 88 | 1007.4 |
| 20260506040044 | 64 | 190 | 4.0 | 9.0 | 0.00 | 0.12 | 0.12 | 89 | 1007.4 |
| 20260506035528 | 64 | 175 | 3.0 | 10.0 | 0.00 | 0.12 | 0.12 | 89 | 1007.5 |
| 20260506035028 | 64 | 116 | 4.0 | 10.0 | 0.00 | 0.12 | 0.12 | 90 | 1007.6 |
| 20260506034559 | 64 | 153 | 3.0 | 10.0 | 0.00 | 0.12 | 0.12 | 90 | 1007.6 |
| 20260506034027 | 63 | 148 | 3.0 | 10.0 | 0.00 | 0.12 | 0.12 | 90 | 1007.8 |
| 20260506033526 | 63 | 191 | 4.0 | 9.0 | 0.00 | 0.12 | 0.12 | 90 | 1007.7 |
| 20260506033049 | 63 | 205 | 3.0 | 9.0 | 0.00 | 0.12 | 0.12 | 91 | 1007.7 |
| 20260506032526 | 63 | 160 | 2.0 | 11.0 | 0.00 | 0.12 | 0.12 | 91 | 1007.7 |
| 20260506032028 | 63 | 215 | 4.0 | 11.0 | 0.00 | 0.12 | 0.12 | 91 | 1007.7 |
| 20260506031548 | 63 | 170 | 3.0 | 9.0 | 0.00 | 0.12 | 0.12 | 91 | 1007.8 |
| 20260506031029 | 63 | 213 | 3.0 | 13.0 | 0.00 | 0.12 | 0.12 | 92 | 1007.6 |
| 20260506030528 | 63 | 187 | 4.0 | 13.0 | 0.00 | 0.12 | 0.12 | 92 | 1007.9 |
| 20260506030046 | 62 | 200 | 4.0 | 9.0 | 0.00 | 0.12 | 0.12 | 93 | 1007.8 |
| 20260506025527 | 62 | 219 | 4.0 | 8.0 | 0.00 | 0.12 | 0.12 | 93 | 1007.8 |
| 20260506025027 | 62 | 201 | 2.0 | 10.0 | 0.00 | 0.12 | 0.12 | 93 | 1007.9 |
| 20260506024552 | 62 | 162 | 4.0 | 10.0 | 0.00 | 0.12 | 0.12 | 94 | 1007.7 |
| 20260506024026 | 62 | 201 | 4.0 | 10.0 | 0.00 | 0.12 | 0.12 | 94 | 1007.7 |
| 20260506023526 | 62 | 113 | 3.0 | 10.0 | 0.00 | 0.12 | 0.12 | 94 | 1007.6 |
| 20260506023053 | 61 | 156 | 3.0 | 8.0 | 0.00 | 0.12 | 0.12 | 94 | 1007.6 |
| 20260506022527 | 61 | 176 | 2.0 | 9.0 | 0.01 | 0.12 | 0.12 | 95 | 1007.5 |
| 20260506022028 | 61 | 159 | 3.0 | 9.0 | 0.01 | 0.12 | 0.12 | 95 | 1007.6 |
| 20260506021541 | 61 | 119 | 2.0 | 6.0 | 0.01 | 0.12 | 0.12 | 95 | 1007.8 |
| 20260506021027 | 61 | 150 | 2.0 | 6.0 | 0.01 | 0.12 | 0.12 | 95 | 1007.8 |
| 20260506020527 | 61 | 138 | 2.0 | 6.0 | 0.01 | 0.12 | 0.12 | 95 | 1007.8 |
| 20260506020047 | 61 | 165 | 1.0 | 5.0 | 0.01 | 0.12 | 0.12 | 95 | 1007.7 |
| 20260506015526 | 61 | 173 | 0.0 | 5.0 | 0.01 | 0.12 | 0.12 | 95 | 1007.8 |
| 20260506015028 | 61 | 0 | 1.0 | 5.0 | 0.01 | 0.12 | 0.12 | 95 | 1007.8 |
| 20260506014548 | 61 | 151 | 2.0 | 4.0 | 0.01 | 0.12 | 0.12 | 95 | 1007.8 |
| 20260506014027 | 60 | 155 | 0.0 | 3.0 | 0.02 | 0.12 | 0.12 | 95 | 1007.9 |
| 20260506013527 | 60 | 0 | 1.0 | 5.0 | 0.02 | 0.12 | 0.12 | 94 | 1007.8 |
| 20260506013057 | 61 | 167 | 1.0 | 5.0 | 0.02 | 0.12 | 0.12 | 94 | 1007.7 |
| 20260506012527 | 60 | 155 | 1.0 | 5.0 | 0.01 | 0.11 | 0.11 | 94 | 1007.8 |
| 20260506012027 | 60 | 171 | 2.0 | 5.0 | 0.01 | 0.11 | 0.11 | 94 | 1007.9 |
| 20260506011547 | 60 | 140 | 2.0 | 5.0 | 0.01 | 0.11 | 0.11 | 94 | 1008.0 |
| 20260506011027 | 61 | 167 | 2.0 | 4.0 | 0.01 | 0.11 | 0.11 | 94 | 1008.0 |
| 20260506010526 | 60 | 137 | 1.0 | 4.0 | 0.01 | 0.11 | 0.11 | 94 | 1008.1 |
| 20260506010054 | 60 | 0 | 1.0 | 4.0 | 0.01 | 0.11 | 0.11 | 93 | 1008.0 |
| 20260506005527 | 60 | 185 | 1.0 | 4.0 | 0.01 | 0.11 | 0.11 | 93 | 1008.0 |
| 20260506005027 | 60 | 153 | 1.0 | 4.0 | 0.01 | 0.11 | 0.11 | 93 | 1007.9 |
| 20260506004548 | 60 | 146 | 1.0 | 5.0 | 0.01 | 0.11 | 0.11 | 93 | 1008.1 |
| 20260506004029 | 61 | 175 | 1.0 | 5.0 | 0.00 | 0.10 | 0.10 | 93 | 1008.3 |
| 20260506003527 | 61 | 148 | 1.0 | 5.0 | 0.01 | 0.10 | 0.10 | 93 | 1008.2 |
| 20260506003048 | 61 | 143 | 1.0 | 5.0 | 0.01 | 0.10 | 0.10 | 93 | 1008.3 |
| 20260506002526 | 61 | 175 | 1.0 | 5.0 | 0.03 | 0.10 | 0.10 | 93 | 1008.5 |
| 20260506002027 | 61 | 121 | 0.0 | 4.0 | 0.03 | 0.10 | 0.10 | 93 | 1008.2 |
| 20260506001554 | 61 | 136 | 1.0 | 4.0 | 0.03 | 0.10 | 0.10 | 92 | 1008.3 |
| 20260506001027 | 61 | 144 | 2.0 | 4.0 | 0.03 | 0.10 | 0.10 | 92 | 1008.3 |
| 20260506000528 | 61 | 119 | 1.0 | 3.0 | 0.03 | 0.10 | 0.10 | 92 | 1008.3 |
| 20260506000051 | 61 | 123 | 1.0 | 3.0 | 0.03 | 0.10 | 0.10 | 92 | 1008.4 |
| 20260505235527 | 61 | 90 | 0.0 | 2.0 | 0.06 | 0.10 | 0.10 | 92 | 1008.4 |
| 20260505235027 | 62 | 0 | 0.0 | 2.0 | 0.06 | 0.10 | 0.10 | 91 | 1008.5 |
| 20260505234545 | 62 | 90 | 1.0 | 2.0 | 0.09 | 0.10 | 0.10 | 91 | 1008.5 |
| 20260505234028 | 62 | 0 | 0.0 | 2.0 | 0.10 | 0.10 | 0.10 | 90 | 1008.4 |
| 20260505233528 | 62 | 0 | 0.0 | 2.0 | 0.09 | 0.09 | 0.09 | 90 | 1008.6 |
| 20260505233054 | 62 | 0 | 0.0 | 2.0 | 0.09 | 0.09 | 0.09 | 89 | 1008.7 |
| 20260505232528 | 62 | 0 | 0.0 | 1.0 | 0.07 | 0.07 | 0.07 | 88 | 1008.8 |
| 20260505232028 | 63 | 0 | 0.0 | 2.0 | 0.07 | 0.07 | 0.07 | 87 | 1008.6 |
| 20260505231541 | 63 | 0 | 0.0 | 2.0 | 0.07 | 0.07 | 0.07 | 85 | 1008.4 |
| 20260505231028 | 63 | 0 | 0.0 | 3.0 | 0.07 | 0.07 | 0.07 | 84 | 1008.3 |
| 20260505230527 | 64 | 130 | 1.0 | 3.0 | 0.07 | 0.07 | 0.07 | 82 | 1008.3 |
| 20260505230054 | 65 | 172 | 0.0 | 5.0 | 0.07 | 0.07 | 0.07 | 81 | 1008.4 |
| 20260505225527 | 65 | 0 | 0.0 | 8.0 | 0.04 | 0.04 | 0.04 | 78 | 1008.5 |
| 20260505225028 | 66 | 0 | 2.0 | 11.0 | 0.03 | 0.03 | 0.03 | 75 | 1008.8 |
| 20260505224545 | 67 | 205 | 3.0 | 12.0 | 0.01 | 0.01 | 0.01 | 72 | 1009.0 |
| 20260505224028 | 67 | 216 | 5.0 | 12.0 | 0.00 | 0.00 | 0.00 | 68 | 1008.8 |
| 20260505223530 | 68 | 172 | 4.0 | 9.0 | 0.00 | 0.00 | 0.00 | 67 | 1008.7 |
| 20260505223048 | 69 | 186 | 3.0 | 12.0 | 0.00 | 0.00 | 0.00 | 68 | 1008.5 |
| 20260505222529 | 70 | 186 | 4.0 | 18.0 | 0.00 | 0.00 | 0.00 | 65 | 1008.7 |
| 20260505222027 | 70 | 193 | 4.0 | 20.0 | 0.00 | 0.00 | 0.00 | 61 | 1008.8 |
| 20260505221544 | 71 | 163 | 9.0 | 20.0 | 0.00 | 0.00 | 0.00 | 59 | 1008.9 |
| 20260505221027 | 71 | 182 | 6.0 | 21.0 | 0.00 | 0.00 | 0.00 | 60 | 1008.8 |
| 20260505220528 | 72 | 207 | 8.0 | 21.0 | 0.00 | 0.00 | 0.00 | 59 | 1008.9 |
| 20260505220045 | 72 | 191 | 7.0 | 21.0 | 0.00 | 0.00 | 0.00 | 58 | 1008.9 |
| 20260505215526 | 72 | 209 | 5.0 | 16.0 | 0.00 | 0.00 | 0.00 | 59 | 1008.9 |
| 20260505215027 | 72 | 178 | 6.0 | 18.0 | 0.00 | 0.00 | 0.00 | 59 | 1009.0 |
| 20260505214541 | 72 | 155 | 5.0 | 18.0 | 0.00 | 0.00 | 0.00 | 58 | 1008.7 |
| 20260505214027 | 72 | 223 | 7.0 | 21.0 | 0.00 | 0.00 | 0.00 | 56 | 1008.6 |
| 20260505213528 | 73 | 177 | 8.0 | 21.0 | 0.00 | 0.00 | 0.00 | 55 | 1008.6 |
| 20260505213048 | 74 | 123 | 8.0 | 21.0 | 0.00 | 0.00 | 0.00 | 55 | 1008.8 |
| 20260505212527 | 75 | 189 | 9.0 | 17.0 | 0.00 | 0.00 | 0.00 | 55 | 1008.9 |
| 20260505212029 | 75 | 184 | 3.0 | 16.0 | 0.00 | 0.00 | 0.00 | 57 | 1008.9 |
| 20260505211548 | 74 | 205 | 4.0 | 17.0 | 0.00 | 0.00 | 0.00 | 56 | 1009.0 |
| 20260505211026 | 74 | 157 | 7.0 | 17.0 | 0.00 | 0.00 | 0.00 | 55 | 1008.7 |
| 20260505210528 | 74 | 185 | 6.0 | 18.0 | 0.00 | 0.00 | 0.00 | 57 | 1008.9 |
| 20260505210048 | 75 | 188 | 7.0 | 23.0 | 0.00 | 0.00 | 0.00 | 55 | 1008.9 |
| 20260505205527 | 75 | 182 | 9.0 | 23.0 | 0.00 | 0.00 | 0.00 | 55 | 1008.7 |
| 20260505205027 | 76 | 218 | 10.0 | 22.0 | 0.00 | 0.00 | 0.00 | 54 | 1008.7 |
| 20260505204544 | 76 | 209 | 8.0 | 19.0 | 0.00 | 0.00 | 0.00 | 56 | 1008.7 |
| 20260505204027 | 76 | 181 | 9.0 | 21.0 | 0.00 | 0.00 | 0.00 | 55 | 1008.8 |
| 20260505203527 | 75 | 177 | 8.0 | 21.0 | 0.00 | 0.00 | 0.00 | 56 | 1008.5 |
| 20260505203053 | 75 | 147 | 5.0 | 18.0 | 0.00 | 0.00 | 0.00 | 57 | 1008.5 |
| 20260505202531 | 75 | 209 | 8.0 | 18.0 | 0.00 | 0.00 | 0.00 | 57 | 1008.5 |
| 20260505202029 | 75 | 153 | 7.0 | 18.0 | 0.00 | 0.00 | 0.00 | 57 | 1008.6 |
| 20260505201550 | 75 | 177 | 8.0 | 18.0 | 0.00 | 0.00 | 0.00 | 56 | 1008.9 |
| 20260505201030 | 75 | 232 | 7.0 | 18.0 | 0.00 | 0.00 | 0.00 | 55 | 1008.9 |
| 20260505200530 | 75 | 177 | 7.0 | 21.0 | 0.00 | 0.00 | 0.00 | 57 | 1009.0 |
| 20260505200048 | 75 | 165 | 9.0 | 21.0 | 0.00 | 0.00 | 0.00 | 55 | 1009.3 |
| 20260505195530 | 75 | 196 | 8.0 | 19.0 | 0.00 | 0.00 | 0.00 | 57 | 1009.5 |
| 20260505195030 | 75 | 161 | 6.0 | 19.0 | 0.00 | 0.00 | 0.00 | 58 | 1009.4 |
| 20260505194549 | 75 | 226 | 6.0 | 23.0 | 0.00 | 0.00 | 0.00 | 55 | 1009.3 |
| 20260505194031 | 75 | 184 | 7.0 | 23.0 | 0.00 | 0.00 | 0.00 | 56 | 1009.3 |
| 20260505193530 | 75 | 82 | 9.0 | 23.0 | 0.00 | 0.00 | 0.00 | 55 | 1009.5 |
| 20260505193046 | 74 | 209 | 7.0 | 15.0 | 0.00 | 0.00 | 0.00 | 57 | 1009.7 |
| 20260505192534 | 73 | 213 | 6.0 | 21.0 | 0.00 | 0.00 | 0.00 | 58 | 1009.8 |
| 20260505192030 | 73 | 190 | 8.0 | 21.0 | 0.00 | 0.00 | 0.00 | 55 | 1009.9 |
| 20260505191555 | 73 | 215 | 8.0 | 24.0 | 0.00 | 0.00 | 0.00 | 57 | 1009.9 |
| 20260505191031 | 73 | 256 | 9.0 | 24.0 | 0.00 | 0.00 | 0.00 | 56 | 1010.0 |
| 20260505190529 | 74 | 219 | 9.0 | 20.0 | 0.00 | 0.00 | 0.00 | 57 | 1010.0 |
| 20260505190050 | 74 | 172 | 10.0 | 22.0 | 0.00 | 0.00 | 0.00 | 57 | 1010.2 |
| 20260505185530 | 74 | 144 | 10.0 | 22.0 | 0.00 | 0.00 | 0.00 | 56 | 1010.3 |
| 20260505185030 | 74 | 223 | 9.0 | 17.0 | 0.00 | 0.00 | 0.00 | 56 | 1010.1 |
| 20260505184544 | 74 | 186 | 9.0 | 21.0 | 0.00 | 0.00 | 0.00 | 56 | 1010.2 |
| 20260505184030 | 74 | 163 | 10.0 | 21.0 | 0.00 | 0.00 | 0.00 | 57 | 1010.5 |
| 20260505183530 | 73 | 207 | 8.0 | 19.0 | 0.00 | 0.00 | 0.00 | 59 | 1010.4 |
| 20260505183110 | 72 | 182 | 7.0 | 19.0 | 0.00 | 0.00 | 0.00 | 59 | 1010.4 |
| 20260505182528 | 72 | 134 | 9.0 | 20.0 | 0.00 | 0.00 | 0.00 | 59 | 1010.2 |
| 20260505182030 | 71 | 161 | 8.0 | 20.0 | 0.00 | 0.00 | 0.00 | 61 | 1010.2 |
| 20260505181543 | 71 | 166 | 9.0 | 20.0 | 0.00 | 0.00 | 0.00 | 59 | 1010.3 |
| 20260505181030 | 70 | 213 | 5.0 | 15.0 | 0.00 | 0.00 | 0.00 | 62 | 1010.2 |
| 20260505180530 | 70 | 221 | 7.0 | 16.0 | 0.00 | 0.00 | 0.00 | 62 | 1010.3 |
| 20260505180047 | 70 | 212 | 6.0 | 20.0 | 0.00 | 0.00 | 0.00 | 65 | 1010.3 |
| 20260505175531 | 70 | 192 | 5.0 | 20.0 | 0.00 | 0.00 | 0.00 | 65 | 1010.4 |
| 20260505175028 | 70 | 208 | 9.0 | 18.0 | 0.00 | 0.00 | 0.00 | 66 | 1010.3 |
| 20260505174543 | 70 | 238 | 5.0 | 15.0 | 0.00 | 0.00 | 0.00 | 69 | 1010.3 |
| 20260505174030 | 69 | 216 | 7.0 | 15.0 | 0.00 | 0.00 | 0.00 | 69 | 1010.2 |
| 20260505173530 | 68 | 173 | 5.0 | 16.0 | 0.00 | 0.00 | 0.00 | 71 | 1010.3 |
| 20260505173052 | 68 | 161 | 5.0 | 16.0 | 0.00 | 0.00 | 0.00 | 71 | 1010.6 |
| 20260505172530 | 67 | 213 | 6.0 | 15.0 | 0.00 | 0.00 | 0.00 | 71 | 1010.6 |
| 20260505172031 | 67 | 183 | 6.0 | 15.0 | 0.00 | 0.00 | 0.00 | 71 | 1010.6 |
| 20260505171557 | 67 | 178 | 5.0 | 15.0 | 0.00 | 0.00 | 0.00 | 72 | 1010.7 |
| 20260505171027 | 67 | 194 | 4.0 | 16.0 | 0.00 | 0.00 | 0.00 | 72 | 1010.9 |
| 20260505170527 | 67 | 175 | 5.0 | 16.0 | 0.00 | 0.00 | 0.00 | 73 | 1010.8 |
| 20260505170044 | 67 | 179 | 5.0 | 13.0 | 0.00 | 0.00 | 0.00 | 73 | 1010.9 |
| 20260505165530 | 67 | 203 | 3.0 | 11.0 | 0.00 | 0.00 | 0.00 | 75 | 1011.0 |
| 20260505165026 | 66 | 202 | 5.0 | 13.0 | 0.00 | 0.00 | 0.00 | 74 | 1011.1 |
| 20260505164548 | 66 | 185 | 4.0 | 13.0 | 0.00 | 0.00 | 0.00 | 73 | 1011.2 |
| 20260505164030 | 66 | 174 | 5.0 | 13.0 | 0.00 | 0.00 | 0.00 | 73 | 1011.4 |
| 20260505163526 | 66 | 238 | 5.0 | 11.0 | 0.00 | 0.00 | 0.00 | 72 | 1011.4 |
| 20260505163042 | 66 | 217 | 5.0 | 16.0 | 0.00 | 0.00 | 0.00 | 71 | 1011.5 |
| 20260505162527 | 67 | 175 | 4.0 | 16.0 | 0.00 | 0.00 | 0.00 | 71 | 1011.7 |
| 20260505162027 | 67 | 173 | 6.0 | 12.0 | 0.00 | 0.00 | 0.00 | 70 | 1011.7 |
| 20260505161603 | 67 | 221 | 5.0 | 12.0 | 0.00 | 0.00 | 0.00 | 70 | 1011.8 |
| 20260505161027 | 67 | 211 | 6.0 | 16.0 | 0.00 | 0.00 | 0.00 | 70 | 1011.9 |
| 20260505160530 | 67 | 200 | 4.0 | 16.0 | 0.00 | 0.00 | 0.00 | 69 | 1012.0 |
| 20260505153050 | 68 | 196 | 5.0 | 15.0 | 0.00 | 0.00 | 0.00 | 69 | 1012.4 |
| 20260505152529 | 68 | 138 | 6.0 | 15.0 | 0.00 | 0.00 | 0.00 | 69 | 1012.2 |
| 20260505152030 | 67 | 224 | 4.0 | 14.0 | 0.00 | 0.00 | 0.00 | 70 | 1012.3 |
| 20260505151543 | 67 | 173 | 5.0 | 14.0 | 0.00 | 0.00 | 0.00 | 69 | 1012.1 |
| 20260505151029 | 67 | 213 | 4.0 | 13.0 | 0.00 | 0.00 | 0.00 | 70 | 1012.2 |
| 20260505150529 | 67 | 215 | 6.0 | 14.0 | 0.00 | 0.00 | 0.00 | 70 | 1012.1 |